Time;durP1;ratioP1;P1;durP2;ratioP2;P2;SDS_P1;SDS_P2;PMS_P1;PMS_P2;Temp;Humidity;BMP_temperature;BMP_pressure;BME280_temperature;BME280_humidity;BME280_pressure;Samples;Min_cycle;Max_cycle;Signal;HPM_P1;HPM_P2
2022/05/22 00:02:57;;;;;;;4.47;0.90;;;13.00;99.90;;;;;;10328762;28;21063;-59
2022/05/22 00:07:59;;;;;;;2.47;1.05;;;12.80;99.90;;;;;;10331132;28;20054;-59
2022/05/22 00:13:01;;;;;;;3.65;1.33;;;12.80;99.90;;;;;;10332681;28;20558;-59
2022/05/22 00:18:03;;;;;;;3.25;1.48;;;12.80;99.90;;;;;;10328903;28;20075;-59
2022/05/22 00:23:04;;;;;;;5.43;1.77;;;12.70;99.90;;;;;;10326593;28;20082;-59
2022/05/22 00:28:06;;;;;;;3.08;1.42;;;12.70;99.90;;;;;;10325033;28;20717;-59
2022/05/22 00:33:08;;;;;;;3.30;1.55;;;12.60;99.90;;;;;;10324226;28;20170;-60
2022/05/22 00:38:09;;;;;;;2.67;1.40;;;12.50;99.90;;;;;;10329565;28;20100;-60
2022/05/22 00:43:48;;;;;;;4.53;1.10;;;12.40;99.90;;;;;;10309275;28;20386;-59
2022/05/22 00:48:58;;;;;;;6.07;1.27;;;12.30;99.90;;;;;;10301742;28;20069;-59
2022/05/22 00:54:13;;;;;;;4.53;1.25;;;12.30;99.90;;;;;;10322523;28;20057;-59
2022/05/22 00:59:20;;;;;;;3.38;0.80;;;12.20;99.90;;;;;;10327056;28;20288;-59
2022/05/22 01:04:26;;;;;;;1.55;0.80;;;12.10;99.90;;;;;;10322506;28;20449;-59
2022/05/22 01:09:28;;;;;;;6.55;0.85;;;12.00;99.90;;;;;;10328126;28;20061;-59
2022/05/22 01:14:34;;;;;;;6.25;0.93;;;11.90;99.90;;;;;;10328968;28;20079;-59
2022/05/22 01:19:36;;;;;;;2.58;0.77;;;11.90;99.90;;;;;;10328619;28;20112;-58
2022/05/22 01:24:39;;;;;;;3.88;0.70;;;11.90;99.90;;;;;;10327892;28;20053;-59
2022/05/22 01:29:40;;;;;;;3.13;0.77;;;11.80;99.90;;;;;;10326334;28;20131;-59
2022/05/22 01:34:42;;;;;;;2.10;0.73;;;11.80;99.90;;;;;;10328039;28;20049;-58
2022/05/22 01:39:44;;;;;;;7.43;0.90;;;11.70;99.90;;;;;;10332063;28;20050;-58
2022/05/22 01:44:46;;;;;;;3.28;0.60;;;11.80;99.90;;;;;;10329327;28;20128;-58
2022/05/22 01:49:47;;;;;;;3.22;1.02;;;11.90;99.90;;;;;;10325232;28;20046;-58
2022/05/22 01:54:49;;;;;;;3.17;0.80;;;11.90;99.90;;;;;;10325517;28;20065;-59
2022/05/22 01:59:51;;;;;;;2.38;0.80;;;12.00;99.90;;;;;;10321717;28;20050;-60
2022/05/22 02:04:52;;;;;;;2.08;0.75;;;12.00;99.90;;;;;;10320154;28;20050;-59
2022/05/22 02:09:54;;;;;;;5.03;1.10;;;12.00;99.90;;;;;;10326547;28;20547;-60
2022/05/22 02:14:56;;;;;;;3.10;0.75;;;12.10;99.90;;;;;;10324064;28;20050;-61
2022/05/22 02:19:57;;;;;;;2.00;1.48;;;12.20;99.90;;;;;;10321601;28;20461;-61
2022/05/22 02:24:59;;;;;;;3.17;0.90;;;12.30;99.90;;;;;;10323228;28;20050;-60
2022/05/22 02:30:02;;;;;;;4.15;1.00;;;12.30;99.90;;;;;;10319960;28;20120;-60
2022/05/22 02:35:10;;;;;;;1.48;0.85;;;12.30;99.90;;;;;;10318677;28;20054;-60
2022/05/22 02:40:13;;;;;;;6.13;0.90;;;12.20;99.90;;;;;;10316167;28;20054;-60
2022/05/22 02:45:24;;;;;;;4.72;0.70;;;12.10;99.90;;;;;;10325713;28;20389;-60
2022/05/22 02:50:28;;;;;;;2.33;0.82;;;12.00;99.90;;;;;;10317416;28;20049;-60
2022/05/22 02:55:30;;;;;;;3.67;1.10;;;11.90;99.90;;;;;;10323999;28;20057;-60
2022/05/22 03:00:32;;;;;;;3.72;0.90;;;11.80;99.90;;;;;;10322536;28;20053;-60
2022/05/22 03:10:54;;;;;;;2.10;0.82;;;11.60;99.90;;;;;;10320307;28;20105;-60
2022/05/22 03:15:56;;;;;;;2.45;1.02;;;11.60;99.90;;;;;;10327041;28;20054;-60
2022/05/22 03:20:58;;;;;;;1.45;0.60;;;11.50;99.90;;;;;;10327220;28;20058;-59
2022/05/22 03:26:00;;;;;;;2.63;0.68;;;11.50;99.90;;;;;;10329352;23;20563;-90
2022/05/22 03:31:03;;;;;;;2.53;0.70;;;11.50;99.90;;;;;;10216046;28;20055;-90
2022/05/22 03:36:07;;;;;;;3.85;0.90;;;11.50;99.90;;;;;;10129657;28;20051;-90
2022/05/22 03:41:13;;;;;;;1.98;1.00;;;11.50;99.90;;;;;;10113836;28;20524;-91
2022/05/22 03:46:17;;;;;;;3.00;1.07;;;11.60;99.90;;;;;;10033624;28;20083;-90
2022/05/22 03:51:21;;;;;;;4.50;0.80;;;11.60;99.90;;;;;;10121038;28;20047;-90
2022/05/22 03:56:29;;;;;;;2.47;0.98;;;11.60;99.90;;;;;;10157749;28;20052;-90
2022/05/22 04:01:40;;;;;;;3.67;1.55;;;11.60;99.90;;;;;;9998844;28;20510;-91
2022/05/22 04:06:49;;;;;;;3.08;1.00;;;11.60;99.90;;;;;;9971260;28;20056;-90
2022/05/22 04:11:54;;;;;;;4.25;1.20;;;11.60;99.90;;;;;;10082458;28;20378;-90
2022/05/22 04:16:55;;;;;;;3.40;0.80;;;11.50;99.90;;;;;;10214574;28;20047;-91
2022/05/22 04:21:58;;;;;;;3.45;1.20;;;11.60;99.90;;;;;;10236615;28;20066;-90
2022/05/22 04:27:06;;;;;;;2.33;1.25;;;11.60;99.90;;;;;;10233435;28;20035;-90
2022/05/22 04:32:09;;;;;;;4.93;0.93;;;11.60;99.90;;;;;;10213342;28;20064;-89
2022/05/22 04:37:14;;;;;;;4.35;0.82;;;11.60;99.90;;;;;;10056664;28;20070;-90
2022/05/22 04:42:16;;;;;;;9.35;1.40;;;11.70;99.90;;;;;;10150199;28;20077;-89
2022/05/22 04:47:20;;;;;;;4.32;1.40;;;11.80;99.90;;;;;;10194149;28;20051;-90
2022/05/22 04:52:24;;;;;;;2.70;1.17;;;11.90;99.90;;;;;;10026249;28;20052;-89
2022/05/22 04:57:27;;;;;;;2.17;1.20;;;12.00;99.90;;;;;;10013075;28;20042;-89
2022/05/22 05:02:44;;;;;;;3.85;1.00;;;12.20;99.90;;;;;;10109839;28;20103;-89
2022/05/22 05:08:00;;;;;;;2.03;1.40;;;12.20;99.90;;;;;;9910397;28;20102;-89
2022/05/22 05:13:10;;;;;;;4.50;1.45;;;12.30;99.90;;;;;;10002577;28;20127;-89
2022/05/22 05:18:13;;;;;;;5.25;1.20;;;12.40;99.90;;;;;;10214706;28;20067;-89
2022/05/22 05:23:16;;;;;;;5.03;1.80;;;12.50;99.90;;;;;;10130337;28;20049;-90
2022/05/22 05:28:18;;;;;;;4.78;1.27;;;12.60;99.90;;;;;;10198040;28;20047;-90
2022/05/22 05:33:26;;;;;;;2.47;1.10;;;12.70;99.90;;;;;;10106884;28;20044;-91
2022/05/22 05:38:32;;;;;;;4.03;1.55;;;12.80;99.90;;;;;;10166854;28;20839;-90
2022/05/22 05:43:54;;;;;;;5.35;1.05;;;12.80;99.90;;;;;;10172088;28;20058;-90
2022/05/22 05:48:56;;;;;;;2.95;1.05;;;12.90;99.90;;;;;;10225354;28;20118;-90
2022/05/22 05:53:58;;;;;;;3.65;1.40;;;13.10;99.90;;;;;;10222065;28;20075;-90
2022/05/22 05:59:00;;;;;;;2.63;1.30;;;13.20;99.90;;;;;;10225262;28;20045;-90
2022/05/22 06:04:03;;;;;;;6.10;2.25;;;13.30;99.90;;;;;;10211353;28;20074;-90
2022/05/22 06:09:05;;;;;;;4.40;1.85;;;13.50;99.90;;;;;;10226489;28;20941;-90
2022/05/22 06:14:08;;;;;;;3.63;1.50;;;13.60;99.90;;;;;;10226887;28;20553;-89
2022/05/22 06:19:10;;;;;;;3.85;1.52;;;13.80;99.90;;;;;;10242944;28;20039;-90
2022/05/22 06:24:12;;;;;;;3.05;1.60;;;14.00;99.90;;;;;;10253419;28;20600;-90
2022/05/22 06:29:14;;;;;;;1.88;1.33;;;14.20;99.90;;;;;;10263025;28;20058;-90
2022/05/22 06:34:16;;;;;;;8.00;1.63;;;14.40;99.90;;;;;;10261957;28;20077;-90
2022/05/22 06:44:39;;;;;;;4.22;1.48;;;14.60;99.90;;;;;;10264493;28;20077;-89
2022/05/22 06:49:48;;;;;;;4.20;1.27;;;14.80;99.90;;;;;;10173870;28;20054;-90
2022/05/22 06:54:51;;;;;;;4.18;1.40;;;14.90;99.90;;;;;;10238370;28;20043;-90
2022/05/22 06:59:55;;;;;;;5.85;1.35;;;15.10;99.90;;;;;;10152824;28;20047;-91
2022/05/22 07:04:59;;;;;;;2.75;1.17;;;15.30;99.90;;;;;;10141024;28;20059;-91
2022/05/22 07:10:06;;;;;;;4.97;1.52;;;15.60;99.90;;;;;;10230587;28;20539;-91
2022/05/22 07:15:21;;;;;;;4.15;1.48;;;15.70;99.90;;;;;;10229849;28;20462;-91
2022/05/22 07:20:24;;;;;;;4.15;1.30;;;15.80;99.90;;;;;;10164624;28;20048;-90
2022/05/22 07:25:26;;;;;;;4.50;1.33;;;16.00;99.90;;;;;;10205352;28;20051;-91
2022/05/22 07:30:33;;;;;;;2.58;1.25;;;16.20;99.90;;;;;;10108038;28;20146;-90
2022/05/22 07:35:37;;;;;;;11.25;1.63;;;16.50;99.90;;;;;;10042420;28;20057;-90
2022/05/22 07:40:41;;;;;;;5.32;0.90;;;16.70;99.90;;;;;;10102370;28;20066;-90
2022/05/22 07:45:50;;;;;;;3.63;1.20;;;17.00;99.90;;;;;;10182873;28;20071;-91
2022/05/22 07:51:02;;;;;;;5.63;1.20;;;17.20;99.90;;;;;;10227163;28;20058;-91
2022/05/22 07:56:05;;;;;;;3.83;1.00;;;17.50;99.90;;;;;;10158918;28;20566;-91
2022/05/22 08:01:09;;;;;;;6.65;1.10;;;17.60;99.40;;;;;;10053330;28;20074;-92
2022/05/22 08:06:25;;;;;;;8.13;1.38;;;17.70;98.20;;;;;;10198542;28;20049;-91
2022/05/22 08:11:28;;;;;;;2.50;1.42;;;18.00;97.80;;;;;;10150586;28;20041;-91
2022/05/22 08:16:43;;;;;;;2.72;0.73;;;18.20;95.20;;;;;;10024562;28;20051;-92
2022/05/22 08:21:45;;;;;;;6.70;1.15;;;18.30;93.20;;;;;;9951688;28;20483;-92
2022/05/22 08:26:51;;;;;;;3.45;0.80;;;18.40;92.90;;;;;;10071374;28;20747;-92
2022/05/22 08:31:53;;;;;;;6.72;0.93;;;18.70;85.40;;;;;;10150830;28;20565;-92
2022/05/22 08:36:55;;;;;;;1.73;0.60;;;18.80;87.50;;;;;;10247218;28;20051;-92
2022/05/22 08:41:58;;;;;;;5.53;0.60;;;19.00;82.40;;;;;;10244115;28;20129;-92
2022/05/22 08:47:11;;;;;;;2.47;0.50;;;19.10;82.30;;;;;;10247193;28;20074;-92
2022/05/22 08:52:31;;;;;;;4.03;0.70;;;19.40;82.50;;;;;;10264597;28;20066;-92
2022/05/22 09:03:30;;;;;;;2.28;0.50;;;19.60;70.00;;;;;;10254825;28;20113;-92
2022/05/22 09:08:47;;;;;;;1.50;0.40;;;19.70;67.70;;;;;;10262221;28;20039;-93
2022/05/22 09:14:11;;;;;;;0.47;0.30;;;19.80;73.00;;;;;;10207567;28;20058;-92
2022/05/22 09:19:39;;;;;;;1.35;0.30;;;20.00;68.30;;;;;;10248021;28;20042;-93
2022/05/22 09:25:08;;;;;;;2.53;0.40;;;20.10;66.60;;;;;;10230662;28;20498;-92
2022/05/22 09:30:25;;;;;;;3.13;0.60;;;20.40;67.70;;;;;;10234277;28;20051;-91
2022/05/22 09:35:44;;;;;;;1.85;0.30;;;20.50;66.80;;;;;;10244644;28;20051;-89
2022/05/22 09:40:50;;;;;;;3.65;0.40;;;20.60;67.60;;;;;;10225322;28;20047;-88
2022/05/22 09:46:17;;;;;;;1.70;0.20;;;20.90;69.30;;;;;;10226813;28;20054;-89
2022/05/22 09:51:49;;;;;;;2.75;0.30;;;20.70;64.20;;;;;;10244660;28;20122;-88
2022/05/22 09:57:03;;;;;;;3.17;0.40;;;21.00;70.00;;;;;;10239566;28;20047;-87
2022/05/22 10:02:21;;;;;;;0.55;0.43;;;21.20;67.30;;;;;;10226380;28;20110;-87
2022/05/22 10:07:57;;;;;;;3.70;0.50;;;21.30;65.20;;;;;;10228884;28;20039;-90
2022/05/22 10:13:38;;;;;;;1.30;0.30;;;21.30;64.20;;;;;;10224904;28;20051;-88
2022/05/22 10:18:51;;;;;;;1.70;0.40;;;21.40;63.40;;;;;;10230437;28;20047;-89
2022/05/22 10:24:44;;;;;;;2.33;0.30;;;21.60;66.70;;;;;;10221934;28;20060;-87
2022/05/22 10:30:01;;;;;;;2.10;0.50;;;21.90;65.30;;;;;;10238604;28;20039;-91
2022/05/22 10:35:19;;;;;;;2.20;0.40;;;22.00;64.80;;;;;;10240114;28;20146;-90
2022/05/22 10:40:25;;;;;;;2.45;0.30;;;22.00;62.10;;;;;;10252708;28;20493;-93
2022/05/22 10:45:37;;;;;;;2.97;0.43;;;21.90;64.00;;;;;;10277940;28;20113;-94
2022/05/22 10:50:55;;;;;;;0.68;0.38;;;22.20;60.70;;;;;;10232212;28;20023;-91
2022/05/22 10:56:06;;;;;;;0.20;0.20;;;22.70;62.20;;;;;;10267885;28;20048;-92
2022/05/22 11:01:20;;;;;;;2.92;0.40;;;23.00;62.60;;;;;;10273619;28;20046;-94
2022/05/22 11:06:24;;;;;;;0.70;0.30;;;23.40;61.00;;;;;;10244319;28;20053;-93
2022/05/22 11:11:28;;;;;;;1.30;0.70;;;23.60;60.50;;;;;;10265283;28;20035;-92
2022/05/22 11:16:31;;;;;;;3.13;0.50;;;23.80;58.50;;;;;;10249650;28;20083;-89
2022/05/22 11:21:58;;;;;;;2.17;0.30;;;23.90;57.20;;;;;;10270760;28;20770;-86
2022/05/22 11:27:40;;;;;;;1.95;0.60;;;24.00;55.50;;;;;;10276601;28;20050;-90
2022/05/22 11:32:45;;;;;;;1.85;0.20;;;24.00;54.70;;;;;;10263844;28;20082;-90
2022/05/22 11:38:06;;;;;;;0.52;0.22;;;24.20;52.90;;;;;;10248636;28;20078;-91
2022/05/22 11:43:38;;;;;;;3.58;0.45;;;24.40;53.40;;;;;;10249681;28;20541;-89
2022/05/22 11:48:51;;;;;;;22.60;2.70;;;24.60;53.20;;;;;;10256964;28;20521;-90
2022/05/22 11:54:32;;;;;;;2.30;0.40;;;24.80;57.00;;;;;;10259245;28;20066;-90
2022/05/22 11:59:49;;;;;;;2.17;0.30;;;24.60;50.90;;;;;;10245016;28;20054;-90
2022/05/22 12:05:13;;;;;;;1.80;0.20;;;24.80;52.70;;;;;;10259356;28;20420;-91
2022/05/22 12:10:45;;;;;;;1.98;0.50;;;25.00;53.50;;;;;;10205146;28;20074;-89
2022/05/22 12:16:27;;;;;;;3.80;0.30;;;25.20;53.30;;;;;;10232487;28;20065;-93
2022/05/22 12:21:51;;;;;;;2.17;0.30;;;25.40;52.60;;;;;;10180038;28;20405;-93
2022/05/22 12:27:08;;;;;;;1.73;0.40;;;25.20;52.50;;;;;;10218446;28;20146;-92
2022/05/22 12:32:22;;;;;;;2.40;0.47;;;25.20;51.00;;;;;;10241479;28;20138;-93
2022/05/22 12:37:40;;;;;;;2.92;0.30;;;25.30;52.30;;;;;;10125529;28;20059;-93
2022/05/22 12:42:49;;;;;;;1.70;0.22;;;25.10;52.60;;;;;;10100071;28;20067;-94
2022/05/22 12:48:22;;;;;;;1.60;0.43;;;25.10;52.20;;;;;;10188250;28;20066;-94
2022/05/22 12:53:31;;;;;;;1.80;0.20;;;25.10;50.30;;;;;;9967732;28;20058;-94
2022/05/22 12:59:03;;;;;;;3.03;0.25;;;25.10;52.50;;;;;;10073219;28;20536;-93
2022/05/22 13:04:54;;;;;;;1.13;0.22;;;25.10;51.30;;;;;;9884135;28;20050;-95
2022/05/22 13:10:07;;;;;;;1.10;0.63;;;24.90;50.60;;;;;;10100009;28;20059;-95
2022/05/22 13:15:22;;;;;;;2.90;0.40;;;24.70;50.00;;;;;;10221307;28;20058;-91
2022/05/22 13:20:34;;;;;;;3.03;0.40;;;24.70;50.90;;;;;;10228070;28;20058;-93
2022/05/22 13:25:55;;;;;;;1.55;0.20;;;24.70;53.10;;;;;;10223530;28;20048;-94
2022/05/22 13:31:12;;;;;;;6.68;0.93;;;25.00;51.20;;;;;;10248745;28;20054;-93
2022/05/22 13:36:32;;;;;;;2.08;0.52;;;25.30;53.00;;;;;;10241318;28;20389;-94
2022/05/22 13:41:47;;;;;;;3.22;0.40;;;25.70;50.50;;;;;;10220385;28;20519;-91
2022/05/22 13:47:16;;;;;;;1.08;0.30;;;25.90;49.70;;;;;;10240910;28;20073;-89
2022/05/22 13:52:34;;;;;;;0.73;0.30;;;26.30;51.60;;;;;;10267887;28;20067;-91
2022/05/22 13:57:51;;;;;;;0.88;0.30;;;26.50;48.70;;;;;;10211538;28;20105;-91
2022/05/22 14:03:01;;;;;;;1.20;0.30;;;26.90;48.10;;;;;;10175666;28;20047;-91
2022/05/22 14:08:18;;;;;;;2.50;0.32;;;27.50;48.50;;;;;;10225699;28;20063;-90
2022/05/22 14:13:24;;;;;;;6.35;0.63;;;27.80;47.10;;;;;;10225108;28;20057;-91
2022/05/22 14:18:29;;;;;;;2.00;0.30;;;27.70;47.50;;;;;;10268891;28;20150;-88
2022/05/22 14:24:51;;;;;;;0.73;0.30;;;27.60;45.70;;;;;;10207790;28;20413;-91
2022/05/22 14:29:05;;;;;;;1.83;0.30;;;27.30;47.00;;;;;;10241564;28;20141;-87
2022/05/22 14:34:07;;;;;;;2.03;0.22;;;27.10;49.60;;;;;;10260430;28;20043;-89
2022/05/22 14:39:16;;;;;;;1.38;0.30;;;27.10;47.20;;;;;;10262629;28;20473;-90
2022/05/22 14:44:30;;;;;;;2.35;0.40;;;27.30;47.90;;;;;;10229637;28;20069;-90
2022/05/22 14:49:48;;;;;;;0.47;0.10;;;27.50;48.20;;;;;;10248386;28;20125;-89
2022/05/22 14:54:57;;;;;;;2.60;0.38;;;27.80;47.70;;;;;;10248526;28;20046;-89
2022/05/22 15:00:23;;;;;;;2.30;0.50;;;28.10;47.10;;;;;;10247383;28;20051;-90
2022/05/22 15:05:53;;;;;;;3.03;0.85;;;28.20;46.40;;;;;;10240815;28;20039;-92
2022/05/22 15:10:56;;;;;;;1.60;0.20;;;28.40;47.30;;;;;;10247366;28;20406;-91
2022/05/22 15:16:08;;;;;;;2.20;0.50;;;28.40;46.60;;;;;;10258218;28;20089;-94
2022/05/22 15:21:15;;;;;;;2.03;0.30;;;28.70;48.50;;;;;;10254620;28;20495;-92
2022/05/22 15:26:23;;;;;;;2.13;0.50;;;28.80;46.50;;;;;;10262400;28;20046;-91
2022/05/22 15:31:31;;;;;;;2.15;0.52;;;28.70;46.20;;;;;;10260734;28;20046;-91
2022/05/22 15:36:41;;;;;;;2.28;0.30;;;28.20;45.10;;;;;;10263579;28;20046;-91
2022/05/22 15:41:45;;;;;;;2.20;0.40;;;27.70;46.20;;;;;;10233942;28;20042;-93
2022/05/22 15:47:09;;;;;;;2.03;0.30;;;27.80;46.50;;;;;;10247662;28;20452;-90
2022/05/22 15:52:13;;;;;;;1.23;0.30;;;27.70;47.30;;;;;;10286974;28;20054;-90
2022/05/22 15:57:16;;;;;;;1.45;0.30;;;27.60;46.10;;;;;;10241096;28;20102;-90
2022/05/22 16:02:22;;;;;;;2.38;0.73;;;27.80;47.50;;;;;;10239361;28;20050;-91
2022/05/22 16:07:28;;;;;;;5.35;0.40;;;27.80;47.90;;;;;;10254868;28;20118;-90
2022/05/22 16:12:30;;;;;;;1.97;0.20;;;27.80;48.90;;;;;;10275251;28;20055;-92
2022/05/22 16:17:34;;;;;;;0.82;0.50;;;27.50;48.70;;;;;;10260027;28;20047;-89
2022/05/22 16:22:38;;;;;;;2.00;0.40;;;27.30;48.80;;;;;;10262243;28;20074;-88
2022/05/22 16:27:41;;;;;;;0.83;0.30;;;26.90;48.80;;;;;;10239373;28;20173;-90
2022/05/22 16:32:44;;;;;;;2.40;0.40;;;26.70;49.70;;;;;;10247127;28;20051;-90
2022/05/22 16:37:46;;;;;;;2.80;0.43;;;26.40;50.40;;;;;;10231841;28;20490;-90
2022/05/22 16:42:49;;;;;;;0.30;0.20;;;26.10;51.50;;;;;;10233740;28;20061;-91
2022/05/22 16:53:14;;;;;;;1.25;0.40;;;25.70;51.60;;;;;;10219190;28;20055;-89
2022/05/22 16:58:41;;;;;;;3.73;0.50;;;25.60;52.10;;;;;;10229117;28;20059;-89
2022/05/22 17:03:45;;;;;;;1.70;0.40;;;25.40;51.30;;;;;;10216270;28;20047;-89
2022/05/22 17:08:55;;;;;;;5.03;0.63;;;25.20;53.00;;;;;;10222701;28;20240;-90
2022/05/22 17:14:17;;;;;;;3.42;0.30;;;25.00;53.10;;;;;;10198197;28;20047;-90
2022/05/22 17:19:29;;;;;;;1.83;0.50;;;24.90;52.90;;;;;;10224545;28;20058;-90
2022/05/22 17:24:54;;;;;;;2.72;0.43;;;24.70;54.30;;;;;;10235614;28;20047;-90
2022/05/22 17:29:58;;;;;;;1.50;0.60;;;24.60;54.40;;;;;;10258979;28;20121;-90
2022/05/22 17:35:00;;;;;;;1.67;0.35;;;24.50;54.90;;;;;;10252047;28;20053;-89
2022/05/22 17:40:09;;;;;;;5.15;0.40;;;24.40;55.00;;;;;;10222270;28;20059;-91
2022/05/22 17:45:11;;;;;;;1.60;0.35;;;24.10;55.10;;;;;;10240854;28;20485;-90
2022/05/22 17:50:13;;;;;;;1.75;0.40;;;24.00;56.10;;;;;;10255305;28;20085;-91
2022/05/22 17:55:15;;;;;;;1.85;0.40;;;23.90;57.30;;;;;;10273629;28;20058;-91
2022/05/22 18:00:19;;;;;;;3.72;0.45;;;23.80;58.60;;;;;;10262565;28;20071;-91
2022/05/22 18:05:22;;;;;;;2.58;0.40;;;23.50;58.20;;;;;;10243662;28;20051;-90
2022/05/22 18:16:01;;;;;;;3.33;0.70;;;23.20;59.70;;;;;;10259152;28;20524;-91
2022/05/22 18:21:07;;;;;;;3.72;0.55;;;23.00;60.30;;;;;;10258993;28;20615;-89
2022/05/22 18:26:11;;;;;;;3.20;0.40;;;22.90;60.90;;;;;;10245106;28;20057;-91
2022/05/22 18:31:15;;;;;;;1.45;0.38;;;22.60;60.60;;;;;;10266442;28;20138;-90
2022/05/22 18:36:23;;;;;;;1.10;0.50;;;22.30;62.00;;;;;;10244550;28;20179;-89
2022/05/22 18:41:26;;;;;;;2.72;0.65;;;22.20;63.70;;;;;;10244954;28;20035;-89
2022/05/22 18:46:28;;;;;;;2.97;0.60;;;22.00;64.90;;;;;;10257080;28;20034;-89
2022/05/22 18:51:30;;;;;;;0.98;0.47;;;21.80;65.80;;;;;;10247252;28;20075;-89
2022/05/22 18:56:34;;;;;;;2.45;0.50;;;21.70;65.80;;;;;;10271681;28;20055;-89
2022/05/22 19:01:37;;;;;;;2.08;0.35;;;21.50;66.80;;;;;;10251134;28;20078;-89
2022/05/22 19:06:38;;;;;;;1.67;0.45;;;21.30;66.70;;;;;;10271243;28;20054;-89
2022/05/22 19:11:40;;;;;;;2.67;0.50;;;21.10;67.00;;;;;;10262620;28;20141;-90
2022/05/22 19:16:46;;;;;;;3.17;0.50;;;20.90;67.20;;;;;;10265987;28;20556;-90
2022/05/22 19:21:48;;;;;;;5.03;0.52;;;20.80;69.00;;;;;;10214445;28;20548;-89
2022/05/22 19:26:50;;;;;;;2.83;0.43;;;20.60;70.40;;;;;;10251720;28;20516;-91
2022/05/22 19:31:56;;;;;;;1.73;0.65;;;20.50;71.80;;;;;;10262421;28;20065;-90
2022/05/22 19:37:01;;;;;;;0.50;0.50;;;20.30;72.20;;;;;;10257343;28;20063;-89
2022/05/22 19:47:33;;;;;;;1.98;0.52;;;19.90;72.40;;;;;;10249180;28;20067;-90
2022/05/22 19:52:35;;;;;;;2.95;0.68;;;19.50;73.60;;;;;;10242306;28;20090;-89
2022/05/22 20:03:04;;;;;;;2.03;0.55;;;19.00;77.10;;;;;;10259624;28;20462;-89
2022/05/22 20:08:12;;;;;;;;;;;18.80;77.40;;;;;;10256862;28;20055;-90
2022/05/22 20:13:14;;;;;;;4.20;0.70;;;18.70;77.60;;;;;;10260388;28;19941;-91
2022/05/22 20:18:18;;;;;;;2.75;0.77;;;18.50;78.90;;;;;;10256168;28;20106;-90
2022/05/22 20:23:20;;;;;;;3.80;0.80;;;18.40;79.70;;;;;;10257212;28;20552;-90
2022/05/22 20:28:28;;;;;;;1.02;0.50;;;18.20;81.00;;;;;;10253128;28;20137;-89
2022/05/22 20:33:31;;;;;;;0.85;0.35;;;18.10;80.70;;;;;;10274564;28;20139;-89
2022/05/22 20:38:36;;;;;;;4.03;0.70;;;18.10;81.60;;;;;;10271286;28;20050;-89
2022/05/22 20:43:42;;;;;;;3.00;1.40;;;18.00;84.80;;;;;;10238261;28;20421;-89
2022/05/22 20:48:49;;;;;;;5.35;1.48;;;18.00;89.00;;;;;;10260921;28;20119;-89
2022/05/22 20:53:51;;;;;;;2.85;1.23;;;17.80;89.40;;;;;;10262400;28;20053;-89
2022/05/22 20:58:53;;;;;;;2.92;0.95;;;17.60;91.80;;;;;;10269190;28;20117;-89
2022/05/22 21:03:54;;;;;;;2.60;0.70;;;17.40;92.60;;;;;;10258278;28;20054;-89
2022/05/22 21:08:57;;;;;;;1.10;0.60;;;17.30;92.70;;;;;;10246835;28;20046;-90
2022/05/22 21:13:58;;;;;;;3.17;0.70;;;17.10;92.30;;;;;;10268677;28;20098;-89
2022/05/22 21:19:06;;;;;;;3.63;0.90;;;17.00;93.00;;;;;;10266303;28;20391;-89
2022/05/22 21:29:31;;;;;;;1.75;0.80;;;16.90;94.40;;;;;;10277097;28;20051;-89
2022/05/22 21:34:33;;;;;;;2.05;0.70;;;16.90;95.10;;;;;;10249632;28;20043;-90
2022/05/22 21:39:36;;;;;;;2.25;0.65;;;16.80;95.20;;;;;;10251808;28;20058;-90
2022/05/22 21:44:43;;;;;;;3.15;0.70;;;16.70;94.90;;;;;;10251131;28;20055;-89
2022/05/22 21:49:46;;;;;;;3.42;0.75;;;16.60;94.90;;;;;;10259903;28;20050;-89
2022/05/22 21:54:48;;;;;;;2.35;0.63;;;16.60;95.20;;;;;;10257592;28;20113;-90
2022/05/22 21:59:55;;;;;;;4.28;0.98;;;16.50;96.20;;;;;;10268462;28;20065;-90
2022/05/22 22:04:57;;;;;;;3.78;0.85;;;16.50;97.30;;;;;;10255769;28;20489;-90
2022/05/22 22:09:59;;;;;;;2.65;0.98;;;16.50;99.90;;;;;;10255336;28;20560;-88
2022/05/22 22:15:01;;;;;;;3.42;0.85;;;16.40;99.90;;;;;;10251157;28;20058;-89
2022/05/22 22:20:03;;;;;;;3.58;0.90;;;16.30;99.90;;;;;;10249344;28;20086;-89
2022/05/22 22:25:08;;;;;;;5.88;1.00;;;16.20;99.90;;;;;;10268292;28;20532;-88
2022/05/22 22:30:10;;;;;;;1.00;0.90;;;16.00;99.90;;;;;;10267535;28;20153;-89
2022/05/22 22:35:14;;;;;;;4.18;1.08;;;16.00;99.90;;;;;;10263380;28;20065;-88
2022/05/22 22:40:17;;;;;;;2.58;1.00;;;16.00;99.90;;;;;;10239855;28;20035;-88
2022/05/22 22:45:19;;;;;;;1.92;0.95;;;16.10;99.90;;;;;;10257644;28;20053;-88
2022/05/22 22:50:20;;;;;;;4.28;0.95;;;16.10;99.90;;;;;;10232055;28;20055;-88
2022/05/22 23:01:05;;;;;;;2.10;0.70;;;16.10;99.90;;;;;;10244253;28;20117;-88
2022/05/22 23:06:07;;;;;;;3.88;0.90;;;16.20;99.90;;;;;;10234281;28;20043;-88
2022/05/22 23:11:10;;;;;;;2.70;0.88;;;16.20;99.90;;;;;;10267281;28;20501;-87
2022/05/22 23:16:12;;;;;;;1.85;0.80;;;16.10;99.90;;;;;;10265707;28;20083;-87
2022/05/22 23:21:15;;;;;;;1.98;0.77;;;16.00;99.90;;;;;;10263772;28;20054;-88
2022/05/22 23:26:18;;;;;;;2.13;0.82;;;15.80;99.90;;;;;;10251693;28;20057;-87
2022/05/22 23:31:20;;;;;;;7.13;0.77;;;15.60;99.90;;;;;;10264981;28;20050;-87
2022/05/22 23:36:29;;;;;;;5.43;1.08;;;15.60;99.90;;;;;;10258132;28;20092;-87
2022/05/22 23:41:30;;;;;;;3.42;1.10;;;15.60;99.90;;;;;;10264241;28;20112;-87
2022/05/22 23:46:33;;;;;;;3.03;0.95;;;15.60;99.90;;;;;;10253995;28;20049;-88
2022/05/22 23:51:43;;;;;;;3.25;1.13;;;15.60;99.90;;;;;;10262722;28;20047;-88
2022/05/22 23:56:45;;;;;;;2.17;0.85;;;15.50;99.90;;;;;;10243275;28;20033;-89
